Time;durP1;ratioP1;P1;durP2;ratioP2;P2;SDS_P1;SDS_P2;PMS_P1;PMS_P2;Temp;Humidity;BMP_temperature;BMP_pressure;BME280_temperature;BME280_humidity;BME280_pressure;Samples;Min_cycle;Max_cycle;Signal;HPM_P1;HPM_P2
2023/01/14 00:02:25;;;;;;;1999.90;999.90;;;10.80;99.90;;;;;;5012365;28;20519;-78
2023/01/14 00:04:50;;;;;;;1999.90;999.90;;;10.70;99.90;;;;;;5011885;28;20049;-78
2023/01/14 00:07:16;;;;;;;1999.90;999.90;;;10.70;99.90;;;;;;5011882;28;20026;-79
2023/01/14 00:09:43;;;;;;;1999.90;999.90;;;10.70;99.90;;;;;;5012045;28;20121;-78
2023/01/14 00:12:08;;;;;;;1999.90;999.90;;;10.80;99.90;;;;;;5010528;28;20397;-78
2023/01/14 00:14:34;;;;;;;1999.90;999.90;;;10.70;99.90;;;;;;5012074;28;20034;-78
2023/01/14 00:17:00;;;;;;;1999.90;999.90;;;10.70;99.90;;;;;;5012083;28;20022;-78
2023/01/14 00:19:27;;;;;;;1999.90;999.90;;;10.70;99.90;;;;;;5008251;28;20386;-78
2023/01/14 00:21:55;;;;;;;1999.90;999.90;;;10.70;99.90;;;;;;5011671;28;20085;-78
2023/01/14 00:24:21;;;;;;;1999.90;999.90;;;10.70;99.90;;;;;;5011748;28;20026;-78
2023/01/14 00:26:50;;;;;;;1999.90;999.90;;;10.80;99.90;;;;;;5011342;28;20057;-78
2023/01/14 00:29:18;;;;;;;1999.90;999.90;;;10.80;99.90;;;;;;5010392;28;20034;-78
2023/01/14 00:31:45;;;;;;;1999.90;999.90;;;10.90;99.90;;;;;;5027645;28;20112;-78
2023/01/14 00:34:12;;;;;;;1999.90;999.90;;;10.90;99.90;;;;;;5015787;28;20033;-78
2023/01/14 00:36:37;;;;;;;1999.90;999.90;;;11.00;99.90;;;;;;5014522;28;20450;-78
2023/01/14 00:39:03;;;;;;;1999.90;999.90;;;11.00;99.90;;;;;;5015221;28;20029;-78
2023/01/14 00:41:29;;;;;;;1999.90;999.90;;;10.80;99.90;;;;;;5014561;28;20072;-78
2023/01/14 00:43:57;;;;;;;1999.90;999.90;;;10.40;99.90;;;;;;5015056;28;20033;-78
2023/01/14 00:46:31;;;;;;;1999.90;999.90;;;10.10;99.90;;;;;;5015491;28;20021;-78
2023/01/14 00:48:58;;;;;;;1999.90;999.90;;;9.80;99.90;;;;;;5015064;28;20026;-78
2023/01/14 00:51:24;;;;;;;1999.90;999.90;;;9.80;99.90;;;;;;5013920;28;20413;-78
2023/01/14 00:53:50;;;;;;;1999.90;999.90;;;9.70;99.90;;;;;;5003135;28;20054;-78
2023/01/14 00:56:19;;;;;;;1999.90;999.90;;;9.60;99.90;;;;;;4995547;28;20026;-78
2023/01/14 00:58:45;;;;;;;1999.90;999.90;;;9.60;99.90;;;;;;5012724;28;20030;-79
2023/01/14 01:01:11;;;;;;;1999.90;999.90;;;9.50;99.90;;;;;;5014931;28;20024;-79
2023/01/14 01:03:38;;;;;;;1999.90;999.90;;;9.50;99.90;;;;;;5014856;28;20022;-79
2023/01/14 01:06:04;;;;;;;1999.90;999.90;;;9.60;99.90;;;;;;5013784;28;20092;-79
2023/01/14 01:08:30;;;;;;;1999.90;999.90;;;9.60;99.90;;;;;;5015139;28;20030;-79
2023/01/14 01:10:56;;;;;;;1999.90;999.90;;;9.60;99.90;;;;;;5014800;28;20492;-78
2023/01/14 01:13:23;;;;;;;1999.90;999.90;;;9.70;99.90;;;;;;5014476;28;20041;-78
2023/01/14 01:15:49;;;;;;;1999.90;999.90;;;9.80;99.90;;;;;;5013106;28;20053;-78
2023/01/14 01:18:15;;;;;;;1999.90;999.90;;;9.80;99.90;;;;;;5013246;28;20079;-79
2023/01/14 01:20:42;;;;;;;1999.90;999.90;;;9.90;99.90;;;;;;5009815;28;20050;-79
2023/01/14 01:23:09;;;;;;;1999.90;999.90;;;9.90;99.90;;;;;;5014626;28;20104;-79
2023/01/14 01:25:35;;;;;;;1999.90;999.90;;;9.90;99.90;;;;;;5014220;28;20164;-78
2023/01/14 01:28:01;;;;;;;1999.90;999.90;;;9.90;99.90;;;;;;5013079;28;20512;-78
2023/01/14 01:30:26;;;;;;;1999.90;999.90;;;9.90;99.90;;;;;;5014621;28;20493;-79
2023/01/14 01:32:53;;;;;;;1999.90;999.90;;;10.00;99.90;;;;;;5014336;28;20164;-78
2023/01/14 01:35:20;;;;;;;1999.90;999.90;;;10.00;99.90;;;;;;5013159;28;20401;-78
2023/01/14 01:37:45;;;;;;;1999.90;999.90;;;10.00;99.90;;;;;;5013955;28;20040;-78
2023/01/14 01:40:12;;;;;;;1999.90;999.90;;;10.10;99.90;;;;;;5014162;28;20104;-78
2023/01/14 01:43:00;;;;;;;1999.90;999.90;;;10.10;99.90;;;;;;5013768;28;20029;-78
2023/01/14 01:45:50;;;;;;;1999.90;999.90;;;10.10;99.90;;;;;;5013275;28;20084;-78
2023/01/14 01:48:40;;;;;;;1999.90;999.90;;;10.10;99.90;;;;;;5013950;28;20455;-78
2023/01/14 01:51:11;;;;;;;1999.90;999.90;;;10.20;99.90;;;;;;5012910;28;20393;-78
2023/01/14 01:53:41;;;;;;;1999.90;999.90;;;10.20;99.90;;;;;;5003612;28;20096;-78
2023/01/14 01:56:12;;;;;;;1999.90;999.90;;;10.30;99.90;;;;;;4994364;28;20098;-78
2023/01/14 01:58:37;;;;;;;1999.90;999.90;;;10.40;99.90;;;;;;5010369;28;20030;-78
2023/01/14 02:01:03;;;;;;;1999.90;999.90;;;10.40;99.90;;;;;;5013787;28;20018;-78
2023/01/14 02:03:41;;;;;;;1999.90;999.90;;;10.40;99.90;;;;;;5013790;28;20032;-79
2023/01/14 02:06:07;;;;;;;1999.90;999.90;;;10.50;99.90;;;;;;5014218;28;20088;-78
2023/01/14 02:08:37;;;;;;;1999.90;999.90;;;10.50;99.90;;;;;;5013994;28;20026;-78
2023/01/14 02:11:30;;;;;;;1999.90;999.90;;;10.50;99.90;;;;;;5013580;28;20037;-78
2023/01/14 02:14:24;;;;;;;1999.90;999.90;;;10.50;99.90;;;;;;5013390;28;20025;-78
2023/01/14 02:17:21;;;;;;;1999.90;999.90;;;10.50;99.90;;;;;;5013668;28;20029;-79
2023/01/14 02:20:21;;;;;;;1999.90;999.90;;;10.40;99.90;;;;;;5011441;28;20057;-79
2023/01/14 02:23:19;;;;;;;1999.90;999.90;;;10.40;99.90;;;;;;5009551;28;20108;-79
2023/01/14 02:26:00;;;;;;;1999.90;999.90;;;10.40;99.90;;;;;;5013073;28;20026;-79
2023/01/14 02:28:49;;;;;;;1999.90;999.90;;;10.40;99.90;;;;;;5013389;28;20036;-79
2023/01/14 02:31:26;;;;;;;1999.90;999.90;;;10.30;99.90;;;;;;5013113;28;20025;-79
2023/01/14 02:34:07;;;;;;;1999.90;999.90;;;10.30;99.90;;;;;;5013282;28;20493;-78
2023/01/14 02:36:44;;;;;;;1999.90;999.90;;;10.30;99.90;;;;;;5012694;28;20455;-78
2023/01/14 02:39:27;;;;;;;1999.90;999.90;;;10.30;99.90;;;;;;5012891;28;20527;-78
2023/01/14 02:44:45;;;;;;;1999.90;999.90;;;10.30;99.90;;;;;;5013443;28;20048;-78
2023/01/14 02:47:21;;;;;;;1999.90;999.90;;;10.40;99.90;;;;;;5012850;28;20030;-78
2023/01/14 02:49:52;;;;;;;1999.90;999.90;;;10.40;99.90;;;;;;5013025;28;20076;-78
2023/01/14 02:52:19;;;;;;;1999.90;999.90;;;10.30;99.90;;;;;;5013132;28;20476;-78
2023/01/14 02:55:00;;;;;;;1999.90;999.90;;;10.40;99.90;;;;;;4993402;28;20030;-78
2023/01/14 02:57:44;;;;;;;1999.90;999.90;;;10.30;99.90;;;;;;5000375;28;20022;-78
2023/01/14 03:00:38;;;;;;;1999.90;999.90;;;10.30;99.90;;;;;;5013256;28;20053;-78
2023/01/14 03:03:45;;;;;;;1999.90;999.90;;;10.30;99.90;;;;;;5012708;28;20026;-77
2023/01/14 03:06:38;;;;;;;1999.90;999.90;;;10.30;99.90;;;;;;5010867;28;20513;-78
2023/01/14 03:09:19;;;;;;;1999.90;999.90;;;10.30;99.90;;;;;;5012637;28;20018;-77
2023/01/14 03:12:17;;;;;;;1999.90;999.90;;;10.40;99.90;;;;;;5012663;28;20042;-78
2023/01/14 03:14:50;;;;;;;1999.90;999.90;;;10.50;99.90;;;;;;5012498;28;20038;-78
2023/01/14 03:17:26;;;;;;;1999.90;999.90;;;10.60;99.90;;;;;;5012758;28;20112;-78
2023/01/14 03:20:02;;;;;;;1999.90;999.90;;;10.60;99.90;;;;;;5009868;28;20030;-78
2023/01/14 03:22:30;;;;;;;1999.90;999.90;;;10.60;99.90;;;;;;5011080;28;20026;-78
2023/01/14 03:24:58;;;;;;;1999.90;999.90;;;10.60;99.90;;;;;;5012175;28;20041;-78
2023/01/14 03:27:30;;;;;;;1999.90;999.90;;;10.60;99.90;;;;;;5011835;28;20030;-78
2023/01/14 03:30:01;;;;;;;1999.90;999.90;;;10.60;99.90;;;;;;5011095;28;20437;-78
2023/01/14 03:33:00;;;;;;;1999.90;999.90;;;10.60;99.90;;;;;;5012703;28;20033;-78
2023/01/14 03:35:31;;;;;;;1999.90;999.90;;;10.70;99.90;;;;;;5010731;28;20025;-78
2023/01/14 03:38:15;;;;;;;1999.90;999.90;;;10.70;99.90;;;;;;5011817;28;20034;-78
2023/01/14 03:40:42;;;;;;;1999.90;999.90;;;10.70;99.90;;;;;;5011056;28;20489;-78
2023/01/14 03:43:19;;;;;;;1999.90;999.90;;;10.70;99.90;;;;;;5010369;28;20034;-78
2023/01/14 03:45:46;;;;;;;1999.90;999.90;;;10.80;99.90;;;;;;5012218;28;20109;-78
2023/01/14 03:48:12;;;;;;;1999.90;999.90;;;10.80;99.90;;;;;;5011002;28;20021;-78
2023/01/14 03:50:57;;;;;;;1999.90;999.90;;;10.70;99.90;;;;;;5012417;28;20104;-78
2023/01/14 03:53:33;;;;;;;1999.90;999.90;;;10.70;99.90;;;;;;5003640;28;20097;-78
2023/01/14 03:56:23;;;;;;;1999.90;999.90;;;10.70;99.90;;;;;;5007798;28;20069;-79
2023/01/14 03:59:12;;;;;;;1999.90;999.90;;;10.60;99.90;;;;;;5010974;28;20026;-78
2023/01/14 04:01:54;;;;;;;1999.90;999.90;;;10.60;99.90;;;;;;5010407;28;20122;-79
2023/01/14 04:04:22;;;;;;;1999.90;999.90;;;10.60;99.90;;;;;;5010816;28;20038;-77
2023/01/14 04:06:48;;;;;;;1999.90;999.90;;;10.60;99.90;;;;;;5012728;28;20438;-77
2023/01/14 04:09:13;;;;;;;1999.90;999.90;;;10.60;99.90;;;;;;5015903;28;20056;-78
2023/01/14 04:11:39;;;;;;;1999.90;999.90;;;10.60;99.90;;;;;;5015467;28;20030;-76
2023/01/14 04:16:50;;;;;;;1999.90;999.90;;;10.60;99.90;;;;;;5015106;28;20084;-77
2023/01/14 04:19:15;;;;;;;1999.90;999.90;;;10.60;99.90;;;;;;5014425;28;20034;-77
2023/01/14 04:21:41;;;;;;;1999.90;999.90;;;10.60;99.90;;;;;;5012362;28;20125;-77
2023/01/14 04:24:07;;;;;;;1999.90;999.90;;;10.70;99.90;;;;;;5014329;28;20121;-77
2023/01/14 04:26:33;;;;;;;1999.90;999.90;;;10.70;99.90;;;;;;5015396;28;20026;-77
2023/01/14 04:28:59;;;;;;;1999.90;999.90;;;10.80;99.90;;;;;;5015539;28;20069;-77
2023/01/14 04:31:24;;;;;;;1999.90;999.90;;;10.90;99.90;;;;;;5015352;28;20057;-77
2023/01/14 04:33:50;;;;;;;1999.90;999.90;;;10.90;99.90;;;;;;5015759;28;20392;-76
2023/01/14 04:36:16;;;;;;;1999.90;999.90;;;10.90;99.90;;;;;;5015678;28;20028;-77
2023/01/14 04:38:41;;;;;;;1999.90;999.90;;;10.90;99.90;;;;;;5013345;28;20041;-77
2023/01/14 04:42:25;;;;;;;1999.90;999.90;;;10.90;99.90;;;;;;5013589;28;20014;-76
2023/01/14 04:43:53;;;;;;;1999.90;999.90;;;10.90;99.90;;;;;;5014815;28;20411;-76
2023/01/14 04:46:18;;;;;;;1999.90;999.90;;;10.90;99.90;;;;;;5015382;28;20097;-76
2023/01/14 04:48:44;;;;;;;1999.90;999.90;;;10.90;99.90;;;;;;5015182;28;20025;-77
2023/01/14 04:51:09;;;;;;;1999.90;999.90;;;11.00;99.90;;;;;;5014994;28;20022;-76
2023/01/14 04:53:35;;;;;;;1999.90;999.90;;;11.00;99.90;;;;;;5004982;28;20470;-77
2023/01/14 04:56:01;;;;;;;1999.90;999.90;;;11.00;99.90;;;;;;4995605;28;20020;-76
2023/01/14 04:58:26;;;;;;;1999.90;999.90;;;11.00;99.90;;;;;;5010839;28;20034;-77
2023/01/14 05:00:52;;;;;;;1999.90;999.90;;;11.10;99.90;;;;;;5015118;28;20045;-76
2023/01/14 05:03:18;;;;;;;1999.90;999.90;;;11.10;99.90;;;;;;5014764;28;20037;-77
2023/01/14 05:05:45;;;;;;;1999.90;999.90;;;11.20;99.90;;;;;;5014915;28;20080;-77
2023/01/14 05:08:11;;;;;;;1999.90;999.90;;;11.20;99.90;;;;;;5014826;28;20112;-77
2023/01/14 05:10:37;;;;;;;1999.90;999.90;;;11.30;99.90;;;;;;5015210;28;20413;-77
2023/01/14 05:13:05;;;;;;;1999.90;999.90;;;11.30;99.90;;;;;;5012919;28;20141;-77
2023/01/14 05:15:37;;;;;;;1999.90;999.90;;;11.40;99.90;;;;;;5014865;28;20022;-77
2023/01/14 05:18:03;;;;;;;1999.90;999.90;;;11.40;99.90;;;;;;5013836;28;20041;-77
2023/01/14 05:20:29;;;;;;;1999.90;999.90;;;11.50;99.90;;;;;;5009808;28;20052;-75
2023/01/14 05:23:06;;;;;;;1999.90;999.90;;;11.50;99.90;;;;;;5014816;28;20025;-75
2023/01/14 05:25:34;;;;;;;1999.90;999.90;;;11.60;99.90;;;;;;5014209;28;20106;-75
2023/01/14 05:28:05;;;;;;;1999.90;999.90;;;11.70;99.90;;;;;;5013015;28;20026;-75
2023/01/14 05:30:31;;;;;;;1999.90;999.90;;;11.70;99.90;;;;;;5013339;28;20033;-75
2023/01/14 05:32:57;;;;;;;1999.90;999.90;;;11.80;99.90;;;;;;5012914;28;20018;-75
2023/01/14 05:35:23;;;;;;;1999.90;999.90;;;11.80;99.90;;;;;;5013089;28;20033;-75
2023/01/14 05:37:49;;;;;;;1999.90;999.90;;;11.90;99.90;;;;;;5014004;28;20083;-77
2023/01/14 05:40:15;;;;;;;1999.90;999.90;;;12.10;99.90;;;;;;5014051;28;20041;-77
2023/01/14 05:48:29;;;;;;;1999.90;999.90;;;12.20;99.90;;;;;;4973068;28;20421;-77
2023/01/14 05:50:58;;;;;;;1999.90;999.90;;;12.20;99.90;;;;;;4972982;28;20038;-79
2023/01/14 05:53:25;;;;;;;1999.90;999.90;;;12.20;99.90;;;;;;4948132;29;20458;-77
2023/01/14 05:55:51;;;;;;;1999.90;999.90;;;12.20;99.90;;;;;;4953560;29;20426;-78
2023/01/14 05:58:17;;;;;;;1999.90;999.90;;;12.20;99.90;;;;;;4967366;28;20053;-78
2023/01/14 06:06:21;;;;;;;1999.90;999.90;;;12.00;99.90;;;;;;4972849;28;20042;-77
2023/01/14 06:08:47;;;;;;;1999.90;999.90;;;12.00;99.90;;;;;;4972731;28;20113;-77
2023/01/14 06:11:13;;;;;;;1999.90;999.90;;;11.90;99.90;;;;;;4972108;28;20054;-77
2023/01/14 06:13:38;;;;;;;1999.90;999.90;;;11.90;99.90;;;;;;4972428;28;20118;-77
2023/01/14 06:16:07;;;;;;;1999.90;999.90;;;11.90;99.90;;;;;;4972749;28;20045;-77
2023/01/14 06:18:41;;;;;;;1999.90;999.90;;;11.90;99.90;;;;;;4963853;28;20038;-77
2023/01/14 06:21:12;;;;;;;1999.90;999.90;;;11.90;99.90;;;;;;5008916;28;20049;-77
2023/01/14 06:23:38;;;;;;;1999.90;999.90;;;11.90;99.90;;;;;;5013412;28;20104;-77
2023/01/14 06:26:08;;;;;;;1999.90;999.90;;;11.80;99.90;;;;;;5011868;28;20057;-77
2023/01/14 06:28:34;;;;;;;1999.90;999.90;;;11.80;99.90;;;;;;5013551;28;20092;-77
2023/01/14 06:30:59;;;;;;;1999.90;999.90;;;11.80;99.90;;;;;;5012736;28;20396;-77
2023/01/14 06:33:25;;;;;;;1999.90;999.90;;;11.80;99.90;;;;;;5011836;28;20022;-77
2023/01/14 06:35:51;;;;;;;1999.90;999.90;;;11.80;99.90;;;;;;5006565;28;20032;-77
2023/01/14 06:38:16;;;;;;;1999.90;999.90;;;11.90;99.90;;;;;;4993960;28;20408;-77
2023/01/14 06:40:42;;;;;;;1999.90;999.90;;;11.90;99.90;;;;;;4993054;28;20447;-77
2023/01/14 06:43:08;;;;;;;1999.90;999.90;;;11.90;99.90;;;;;;4991498;28;20030;-77
2023/01/14 06:45:34;;;;;;;1999.90;999.90;;;11.90;99.90;;;;;;4999278;28;20018;-78
2023/01/14 06:48:00;;;;;;;1999.90;999.90;;;11.90;99.90;;;;;;5008353;28;20072;-77
2023/01/14 06:50:26;;;;;;;1999.90;999.90;;;12.00;99.90;;;;;;5013155;28;20021;-77
2023/01/14 06:52:52;;;;;;;1999.90;999.90;;;12.00;99.90;;;;;;5008811;28;20081;-77
2023/01/14 06:55:21;;;;;;;1999.90;999.90;;;12.00;99.90;;;;;;4993323;28;20061;-77
2023/01/14 06:57:47;;;;;;;1999.90;999.90;;;12.10;99.90;;;;;;5002961;28;20030;-78
2023/01/14 07:00:13;;;;;;;1999.90;999.90;;;12.10;99.90;;;;;;5013117;28;20041;-78
2023/01/14 07:02:39;;;;;;;1999.90;999.90;;;12.20;99.90;;;;;;5012974;28;20100;-78
2023/01/14 07:05:05;;;;;;;1999.90;999.90;;;12.30;99.90;;;;;;5012627;28;20153;-77
2023/01/14 07:07:31;;;;;;;1999.90;999.90;;;12.40;99.90;;;;;;5012723;28;20087;-78
2023/01/14 07:09:58;;;;;;;1999.90;999.90;;;12.40;99.90;;;;;;5012687;28;20046;-77
2023/01/14 07:12:24;;;;;;;1999.90;999.90;;;12.50;99.90;;;;;;5012834;28;20048;-78
2023/01/14 07:14:49;;;;;;;1999.90;999.90;;;12.50;99.90;;;;;;5011589;28;20026;-79
2023/01/14 07:17:15;;;;;;;1999.90;999.90;;;12.50;99.90;;;;;;5011885;28;20029;-78
2023/01/14 07:19:41;;;;;;;1999.90;999.90;;;12.50;99.90;;;;;;5008061;28;20038;-80
2023/01/14 07:22:06;;;;;;;1999.90;999.90;;;12.50;99.90;;;;;;5012805;28;20046;-79
2023/01/14 07:24:32;;;;;;;1999.90;999.90;;;12.50;99.90;;;;;;5012752;28;20408;-78
2023/01/14 07:26:58;;;;;;;1999.90;999.90;;;12.50;99.90;;;;;;5012660;28;20460;-78
2023/01/14 07:29:23;;;;;;;1999.90;999.90;;;12.50;99.90;;;;;;5012398;28;20071;-79
2023/01/14 07:31:49;;;;;;;1999.90;999.90;;;12.50;99.90;;;;;;5010993;28;20121;-78
2023/01/14 07:34:15;;;;;;;1999.90;999.90;;;12.50;99.90;;;;;;5011404;28;20030;-79
2023/01/14 07:36:40;;;;;;;1999.90;999.90;;;12.50;99.90;;;;;;5012759;28;20546;-78
2023/01/14 07:39:06;;;;;;;1999.90;999.90;;;12.50;99.90;;;;;;5012314;28;20037;-78
2023/01/14 07:41:32;;;;;;;1999.90;999.90;;;12.50;99.90;;;;;;5010853;28;20420;-79
2023/01/14 07:43:57;;;;;;;1999.90;999.90;;;12.60;99.90;;;;;;5011264;28;20022;-80
2023/01/14 07:46:23;;;;;;;1999.90;999.90;;;12.60;99.90;;;;;;5012668;28;20116;-79
2023/01/14 07:48:48;;;;;;;1999.90;999.90;;;12.60;99.90;;;;;;5012935;28;20401;-79
2023/01/14 07:51:20;;;;;;;1999.90;999.90;;;12.60;99.90;;;;;;5010990;28;20037;-79
2023/01/14 07:53:47;;;;;;;1999.90;999.90;;;12.60;99.90;;;;;;4999575;28;20018;-79
2023/01/14 07:56:13;;;;;;;1999.90;999.90;;;12.70;99.90;;;;;;4992443;28;20050;-78
2023/01/14 07:58:38;;;;;;;1999.90;999.90;;;12.70;99.90;;;;;;5009620;28;20567;-78
2023/01/14 08:01:09;;;;;;;1999.90;999.90;;;12.70;99.90;;;;;;5012066;28;20056;-78
2023/01/14 08:03:35;;;;;;;1999.90;999.90;;;12.70;99.90;;;;;;5010826;28;20026;-78
2023/01/14 08:06:05;;;;;;;1999.90;999.90;;;12.80;99.90;;;;;;5012100;28;20493;-78
2023/01/14 08:08:31;;;;;;;1999.90;999.90;;;12.80;99.90;;;;;;5010797;28;20022;-79
2023/01/14 08:11:01;;;;;;;1999.90;999.90;;;12.80;99.90;;;;;;5012073;28;20109;-79
2023/01/14 08:13:27;;;;;;;1999.90;999.90;;;12.80;99.90;;;;;;5011899;28;20571;-79
2023/01/14 08:15:57;;;;;;;1999.90;999.90;;;12.80;99.90;;;;;;5012223;28;20451;-78
2023/01/14 08:18:23;;;;;;;1999.90;999.90;;;12.80;99.90;;;;;;5011920;28;20033;-79
2023/01/14 08:20:58;;;;;;;1999.90;999.90;;;12.80;99.90;;;;;;5022008;28;20041;-80
2023/01/14 08:23:24;;;;;;;1999.90;999.90;;;12.70;99.90;;;;;;5011836;28;20018;-80
2023/01/14 08:25:50;;;;;;;1999.90;999.90;;;12.70;99.90;;;;;;5010273;28;20057;-80
2023/01/14 08:28:16;;;;;;;1999.90;999.90;;;12.70;99.90;;;;;;5011717;28;20101;-80
2023/01/14 08:30:41;;;;;;;1999.90;999.90;;;12.60;99.90;;;;;;5011965;28;20477;-79
2023/01/14 08:33:08;;;;;;;1999.90;999.90;;;12.70;99.90;;;;;;5011735;28;20026;-80
2023/01/14 08:35:40;;;;;;;1999.90;999.90;;;12.70;99.90;;;;;;5010762;28;20448;-80
2023/01/14 08:38:07;;;;;;;1999.90;999.90;;;12.70;99.90;;;;;;5011933;28;20393;-80
2023/01/14 08:40:33;;;;;;;1999.90;999.90;;;12.60;99.90;;;;;;5011215;28;20018;-80
2023/01/14 08:42:58;;;;;;;1999.90;999.90;;;12.60;99.90;;;;;;5011293;28;20123;-80
2023/01/14 08:45:24;;;;;;;1999.90;999.90;;;12.70;99.90;;;;;;5011581;28;20060;-80
2023/01/14 08:47:49;;;;;;;1999.90;999.90;;;12.70;99.90;;;;;;5011998;28;20064;-80
2023/01/14 08:50:15;;;;;;;1999.90;999.90;;;12.60;99.90;;;;;;5012058;28;20169;-80
2023/01/14 08:52:41;;;;;;;1999.90;999.90;;;12.60;99.90;;;;;;5009663;28;20540;-80
2023/01/14 08:55:07;;;;;;;1999.90;999.90;;;12.70;99.90;;;;;;4995366;28;20022;-80
2023/01/14 08:57:33;;;;;;;1999.90;999.90;;;12.70;99.90;;;;;;5003456;28;20135;-80
2023/01/14 08:59:58;;;;;;;1999.90;999.90;;;12.70;99.90;;;;;;5016699;28;20054;-80
2023/01/14 09:02:24;;;;;;;1999.90;999.90;;;12.70;99.90;;;;;;5017674;28;20481;-81
2023/01/14 09:04:49;;;;;;;1999.90;999.90;;;12.70;99.90;;;;;;5018931;28;20030;-80
2023/01/14 09:18:12;;;;;;;1999.90;999.90;;;12.70;99.90;;;;;;5015327;28;20112;-80
2023/01/14 09:20:40;;;;;;;1999.90;999.90;;;12.70;99.90;;;;;;5010459;28;20512;-80
2023/01/14 09:23:08;;;;;;;1999.90;999.90;;;12.70;99.90;;;;;;5013701;28;20030;-80
2023/01/14 09:25:33;;;;;;;1999.90;999.90;;;12.80;99.90;;;;;;5014295;28;20029;-80
2023/01/14 09:27:59;;;;;;;1999.90;999.90;;;12.80;99.90;;;;;;5014465;28;20084;-80
2023/01/14 09:30:26;;;;;;;1999.90;999.90;;;12.90;99.90;;;;;;5014711;28;20480;-80
2023/01/14 09:32:52;;;;;;;1999.90;999.90;;;12.90;99.90;;;;;;5015024;28;20022;-80
2023/01/14 09:35:18;;;;;;;1999.90;999.90;;;12.90;99.90;;;;;;5013753;28;20116;-79
2023/01/14 09:37:43;;;;;;;1999.90;999.90;;;12.90;99.90;;;;;;5014796;28;20033;-79
2023/01/14 09:40:10;;;;;;;1999.90;999.90;;;12.90;99.90;;;;;;5015079;28;20038;-83
2023/01/14 09:42:47;;;;;;;1999.90;999.90;;;12.90;99.90;;;;;;5013991;28;20025;-79
2023/01/14 09:45:14;;;;;;;1999.90;999.90;;;12.90;99.90;;;;;;5013067;28;20030;-79
2023/01/14 09:47:42;;;;;;;1999.90;999.90;;;12.90;99.90;;;;;;5014528;28;20398;-79
2023/01/14 09:50:16;;;;;;;1999.90;999.90;;;13.00;99.90;;;;;;5014603;28;20030;-81
2023/01/14 09:52:45;;;;;;;1999.90;999.90;;;13.00;99.90;;;;;;5011475;28;20460;-80
2023/01/14 09:55:26;;;;;;;1999.90;999.90;;;13.00;99.90;;;;;;4994701;28;20102;-80
2023/01/14 09:58:07;;;;;;;1999.90;999.90;;;13.10;99.90;;;;;;5004873;28;20022;-79
2023/01/14 10:00:44;;;;;;;1999.90;999.90;;;13.10;99.90;;;;;;5014379;28;20030;-80
2023/01/14 10:03:20;;;;;;;1999.90;999.90;;;13.10;99.90;;;;;;5012598;28;20030;-79
2023/01/14 10:05:53;;;;;;;1999.90;999.90;;;13.10;99.90;;;;;;5013388;28;20108;-79
2023/01/14 10:08:21;;;;;;;1999.90;999.90;;;13.10;99.90;;;;;;5012980;28;20022;-79
2023/01/14 10:10:47;;;;;;;1999.90;999.90;;;13.20;99.90;;;;;;5014528;28;20022;-81
2023/01/14 10:13:17;;;;;;;1999.90;999.90;;;13.20;99.90;;;;;;5013710;28;20050;-79
2023/01/14 10:15:48;;;;;;;1999.90;999.90;;;13.20;99.90;;;;;;5014284;28;20097;-79
2023/01/14 10:18:28;;;;;;;1999.90;999.90;;;13.30;99.90;;;;;;5012546;28;20053;-81
2023/01/14 10:20:59;;;;;;;1999.90;999.90;;;13.20;99.90;;;;;;5009036;28;20120;-79
2023/01/14 10:23:40;;;;;;;1999.90;999.90;;;13.20;99.90;;;;;;4994059;28;20101;-78
2023/01/14 10:26:14;;;;;;;1999.90;999.90;;;13.20;99.90;;;;;;5008377;28;20045;-78
2023/01/14 10:28:40;;;;;;;1999.90;999.90;;;13.20;99.90;;;;;;5013936;28;20105;-79
2023/01/14 10:31:09;;;;;;;1999.90;999.90;;;13.20;99.90;;;;;;5013255;28;20519;-79
2023/01/14 10:33:34;;;;;;;1999.90;999.90;;;13.20;99.90;;;;;;5013497;28;20018;-79
2023/01/14 10:36:05;;;;;;;1999.90;999.90;;;13.30;99.90;;;;;;5013376;28;20109;-82
2023/01/14 10:38:31;;;;;;;1999.90;999.90;;;13.30;99.90;;;;;;5011925;28;20022;-79
2023/01/14 10:41:02;;;;;;;1999.90;999.90;;;13.40;99.90;;;;;;5011672;28;20390;-78
2023/01/14 10:43:31;;;;;;;1999.90;999.90;;;13.50;99.90;;;;;;5012834;28;20025;-83
2023/01/14 10:45:57;;;;;;;1999.90;999.90;;;13.60;99.90;;;;;;5013195;28;20076;-79
2023/01/14 10:48:25;;;;;;;1999.90;999.90;;;13.60;99.90;;;;;;5011939;28;20029;-79
2023/01/14 10:50:51;;;;;;;1999.90;999.90;;;13.60;99.90;;;;;;5013191;28;20060;-79
2023/01/14 10:53:24;;;;;;;1999.90;999.90;;;13.60;99.90;;;;;;5003949;28;20018;-81
2023/01/14 10:55:57;;;;;;;1999.90;999.90;;;13.50;99.90;;;;;;4993409;28;20102;-79
2023/01/14 10:58:28;;;;;;;1999.90;999.90;;;13.50;99.90;;;;;;5008153;28;20026;-79
2023/01/14 11:01:00;;;;;;;1999.90;999.90;;;13.40;99.90;;;;;;5011685;28;20065;-79
2023/01/14 11:03:35;;;;;;;1999.90;999.90;;;13.40;99.90;;;;;;5012766;28;20393;-78
2023/01/14 11:06:11;;;;;;;1999.90;999.90;;;13.40;99.90;;;;;;5011591;28;20033;-80
2023/01/14 11:08:51;;;;;;;1999.90;999.90;;;13.40;99.90;;;;;;5011548;28;20544;-80
2023/01/14 11:11:24;;;;;;;1999.90;999.90;;;13.30;99.90;;;;;;5012133;28;20035;-80
2023/01/14 11:13:54;;;;;;;1999.90;999.90;;;13.30;99.90;;;;;;5012493;28;20030;-80
2023/01/14 11:16:25;;;;;;;1999.90;999.90;;;13.30;99.90;;;;;;5012886;28;20033;-79
2023/01/14 11:18:59;;;;;;;1999.90;999.90;;;13.30;99.90;;;;;;5009987;28;20543;-79
2023/01/14 11:21:33;;;;;;;1999.90;999.90;;;13.30;99.90;;;;;;5011089;28;20049;-80
2023/01/14 11:24:03;;;;;;;1999.90;999.90;;;13.30;99.90;;;;;;5012262;28;20034;-79
2023/01/14 11:26:36;;;;;;;1999.90;999.90;;;13.40;99.90;;;;;;5012562;28;20030;-79
2023/01/14 11:29:24;;;;;;;1999.90;999.90;;;13.40;99.90;;;;;;5012296;28;20072;-79
2023/01/14 11:31:54;;;;;;;1999.90;999.90;;;13.40;99.90;;;;;;5012529;28;20089;-79
2023/01/14 11:34:37;;;;;;;1999.90;999.90;;;13.40;99.90;;;;;;5012682;28;20018;-79
2023/01/14 11:37:24;;;;;;;1999.90;999.90;;;13.50;99.90;;;;;;5012330;28;20529;-78
2023/01/14 11:39:56;;;;;;;1999.90;999.90;;;13.40;99.90;;;;;;5011836;28;20038;-80
2023/01/14 11:42:37;;;;;;;1999.90;999.90;;;13.40;99.90;;;;;;5011178;28;20528;-79
2023/01/14 11:45:12;;;;;;;1999.90;999.90;;;13.50;99.90;;;;;;5012057;28;20132;-79
2023/01/14 11:48:21;;;;;;;1999.90;999.90;;;13.60;99.90;;;;;;5012393;28;20104;-79
2023/01/14 11:50:59;;;;;;;1999.90;999.90;;;13.60;99.90;;;;;;5012263;28;20018;-79
2023/01/14 11:53:40;;;;;;;1999.90;999.90;;;13.60;99.90;;;;;;5003304;28;20022;-79
2023/01/14 11:56:10;;;;;;;1999.90;999.90;;;13.70;99.90;;;;;;4992436;28;20033;-80
2023/01/14 11:58:35;;;;;;;1999.90;999.90;;;13.70;99.90;;;;;;5010819;28;20627;-79
2023/01/14 12:01:10;;;;;;;1999.90;999.90;;;13.70;99.90;;;;;;5010858;28;20121;-81
2023/01/14 12:03:49;;;;;;;1999.90;999.90;;;13.70;99.90;;;;;;5011973;28;20021;-78
2023/01/14 12:06:20;;;;;;;1999.90;999.90;;;13.70;99.90;;;;;;5012180;28;20397;-79
2023/01/14 12:08:53;;;;;;;1999.90;999.90;;;13.70;99.90;;;;;;5012314;28;20022;-82
2023/01/14 12:11:53;;;;;;;1999.90;999.90;;;13.70;99.90;;;;;;5010618;28;20026;-79
2023/01/14 12:17:15;;;;;;;1999.90;999.90;;;13.80;99.90;;;;;;5011827;28;20041;-83
2023/01/14 12:19:50;;;;;;;1999.90;999.90;;;13.90;99.90;;;;;;5008800;28;20032;-81
2023/01/14 12:22:26;;;;;;;1999.90;999.90;;;13.90;99.90;;;;;;5007926;28;20052;-78
2023/01/14 12:25:19;;;;;;;1999.90;999.90;;;13.90;99.90;;;;;;5011998;28;20121;-82
2023/01/14 12:27:48;;;;;;;;;;;13.90;99.90;;;;;;5012426;28;20026;-81
2023/01/14 12:30:31;;;;;;;1999.90;999.90;;;13.90;99.90;;;;;;5015620;28;20733;-79
2023/01/14 12:33:13;;;;;;;1999.90;999.90;;;13.80;99.90;;;;;;5014478;28;20472;-78
2023/01/14 12:35:42;;;;;;;1999.90;999.90;;;13.80;99.90;;;;;;5015692;28;20022;-81
2023/01/14 12:45:41;;;;;;;1999.90;999.90;;;13.90;99.90;;;;;;5014282;28;20485;-83
2023/01/14 12:46:38;;;;;;;1999.90;999.90;;;13.80;99.90;;;;;;5015502;28;20133;-78
2023/01/14 12:49:05;;;;;;;1999.90;999.90;;;13.80;99.90;;;;;;5015192;28;20098;-78
2023/01/14 12:51:35;;;;;;;1999.90;999.90;;;13.80;99.90;;;;;;5015191;28;20396;-78
2023/01/14 12:54:06;;;;;;;1999.90;999.90;;;13.70;99.90;;;;;;5001706;28;20065;-80
2023/01/14 12:56:37;;;;;;;1999.90;999.90;;;13.60;99.90;;;;;;4995596;28;20015;-80